createdAt,value
2018-04-15T00:03:57.209Z,12.40
2018-04-15T00:08:48.257Z,12.35
2018-04-15T00:13:40.002Z,12.35
2018-04-15T00:18:31.757Z,12.34
2018-04-15T00:23:22.764Z,12.36
2018-04-15T00:28:14.569Z,12.34
2018-04-15T00:33:05.579Z,12.27
2018-04-15T00:38:00.782Z,12.23
2018-04-15T00:42:51.924Z,12.18
2018-04-15T00:47:42.948Z,12.10
2018-04-15T00:52:34.033Z,12.02
2018-04-15T00:57:25.815Z,11.95
2018-04-15T01:02:16.802Z,11.95
2018-04-15T01:07:07.845Z,11.91
2018-04-15T01:11:58.860Z,11.86
2018-04-15T01:16:49.853Z,11.84
2018-04-15T01:21:41.629Z,11.80
2018-04-15T01:26:32.610Z,11.74
2018-04-15T01:31:24.427Z,11.75
2018-04-15T01:36:15.444Z,11.72
2018-04-15T01:41:06.452Z,11.69
2018-04-15T01:45:57.560Z,11.67
2018-04-15T01:50:48.588Z,11.67
2018-04-15T01:55:39.735Z,11.67
2018-04-15T02:00:30.740Z,11.67
2018-04-15T02:05:21.838Z,11.64
2018-04-15T02:10:12.835Z,11.62
2018-04-15T02:15:04.581Z,11.58
2018-04-15T02:19:56.347Z,11.55
2018-04-15T02:24:47.379Z,11.48
2018-04-15T02:29:38.371Z,11.45
2018-04-15T02:34:30.139Z,11.45
2018-04-15T02:39:21.192Z,11.48
2018-04-15T02:44:12.211Z,11.52
2018-04-15T02:49:03.195Z,11.55
2018-04-15T02:53:54.217Z,11.52
2018-04-15T02:58:45.228Z,11.48
2018-04-15T03:03:37.012Z,11.43
2018-04-15T03:08:28.010Z,11.37
2018-04-15T03:13:19.033Z,11.37
2018-04-15T03:18:10.023Z,11.34
2018-04-15T03:23:01.849Z,11.36
2018-04-15T03:27:53.605Z,11.38
2018-04-15T03:32:45.359Z,11.36
2018-04-15T03:37:37.127Z,11.34
2018-04-15T03:42:28.155Z,11.32
2018-04-15T03:47:19.156Z,11.32
2018-04-15T03:52:10.155Z,11.36
2018-04-15T03:57:01.173Z,11.32
2018-04-15T04:01:52.283Z,11.35
2018-04-15T04:06:43.392Z,11.34
2018-04-15T04:11:34.417Z,11.31
2018-04-15T04:16:25.419Z,11.29
2018-04-15T04:21:35.190Z,11.23
2018-04-15T04:26:26.302Z,11.19
2018-04-15T04:31:18.304Z,11.20
2018-04-15T04:36:09.297Z,11.21
2018-04-15T04:41:00.279Z,11.21
2018-04-15T04:45:51.294Z,11.28
2018-04-15T04:50:43.085Z,11.31
2018-04-15T04:55:34.188Z,11.31
2018-04-15T05:00:25.185Z,11.27
2018-04-15T05:05:16.195Z,11.24
2018-04-15T05:10:07.277Z,11.29
2018-04-15T05:14:58.287Z,11.30
2018-04-15T05:19:49.322Z,11.32
2018-04-15T05:24:40.337Z,11.39
2018-04-15T05:29:31.351Z,11.45
2018-04-15T05:34:22.375Z,11.53
2018-04-15T05:39:13.376Z,11.53
2018-04-15T05:44:04.376Z,11.57
2018-04-15T05:48:56.126Z,11.61
2018-04-15T05:53:47.890Z,11.70
2018-04-15T05:58:38.913Z,11.75
2018-04-15T06:03:29.975Z,11.82
2018-04-15T06:08:20.968Z,11.88
2018-04-15T06:13:12.094Z,12.08
2018-04-15T06:18:03.092Z,12.32
2018-04-15T06:22:54.155Z,12.52
2018-04-15T06:27:45.172Z,12.63
2018-04-15T06:32:36.171Z,12.69
2018-04-15T06:37:27.242Z,12.79
2018-04-15T06:42:18.261Z,12.93
2018-04-15T06:47:09.251Z,13.26
2018-04-15T06:52:00.250Z,13.60
2018-04-15T06:56:51.312Z,14.13
2018-04-15T07:01:42.335Z,14.93
2018-04-15T07:06:33.343Z,15.25
2018-04-15T07:11:24.369Z,15.35
2018-04-15T07:16:15.411Z,15.53
2018-04-15T07:21:06.507Z,15.80
2018-04-15T07:25:57.618Z,16.14
2018-04-15T07:30:48.615Z,16.85
2018-04-15T07:35:40.354Z,17.31
2018-04-15T07:40:32.174Z,17.66
2018-04-15T07:45:23.180Z,17.96
2018-04-15T07:50:14.183Z,18.17
2018-04-15T07:55:05.187Z,18.57
2018-04-15T07:59:56.198Z,19.02
2018-04-15T08:04:48.029Z,19.21
2018-04-15T08:09:39.791Z,19.51
2018-04-15T08:14:30.783Z,20.38
2018-04-15T08:19:21.858Z,21.21
2018-04-15T08:24:12.909Z,22.11
2018-04-15T08:29:03.940Z,22.69
2018-04-15T08:33:54.966Z,23.05
2018-04-15T08:38:45.966Z,23.76
2018-04-15T08:43:37.044Z,24.29
2018-04-15T08:48:28.075Z,24.93
2018-04-15T08:53:19.071Z,24.58
2018-04-15T08:58:10.815Z,24.63
2018-04-15T09:03:02.547Z,24.82
2018-04-15T09:07:53.544Z,25.19
2018-04-15T09:12:44.567Z,25.79
2018-04-15T09:17:35.592Z,26.05
2018-04-15T09:22:26.645Z,26.16
2018-04-15T09:27:18.448Z,26.35
2018-04-15T09:32:09.481Z,26.89
2018-04-15T09:37:00.524Z,27.78
2018-04-15T09:41:52.820Z,27.79
2018-04-15T09:46:43.815Z,27.99
2018-04-15T09:51:35.571Z,28.18
2018-04-15T09:56:26.593Z,28.41
2018-04-15T10:01:17.683Z,28.85
2018-04-15T10:06:09.452Z,29.56
2018-04-15T10:11:00.458Z,29.82
2018-04-15T10:15:52.253Z,29.95
2018-04-15T10:20:43.360Z,29.65
2018-04-15T10:25:34.375Z,29.68
2018-04-15T10:30:25.397Z,29.39
2018-04-15T10:35:16.417Z,29.81
2018-04-15T10:40:07.421Z,30.30
2018-04-15T10:44:58.487Z,30.16
2018-04-15T10:49:49.553Z,29.75
2018-04-15T10:54:41.348Z,29.50
2018-04-15T10:59:32.400Z,29.29
2018-04-15T11:04:23.467Z,30.04
2018-04-15T11:09:14.489Z,30.27
2018-04-15T11:14:05.541Z,30.26
2018-04-15T11:18:57.310Z,30.35
2018-04-15T11:23:48.536Z,29.54
2018-04-15T11:28:39.615Z,29.78
2018-04-15T11:33:30.651Z,29.38
2018-04-15T11:38:21.728Z,30.34
2018-04-15T11:43:12.727Z,31.04
2018-04-15T11:48:03.849Z,30.23
2018-04-15T11:52:54.842Z,29.61
2018-04-15T11:57:45.840Z,30.20
2018-04-15T12:02:37.090Z,30.87
2018-04-15T12:07:28.124Z,31.29
2018-04-15T12:12:19.144Z,30.66
2018-04-15T12:17:10.201Z,31.29
2018-04-15T12:22:01.163Z,30.54
2018-04-15T12:26:52.295Z,30.13
2018-04-15T12:31:43.323Z,30.69
2018-04-15T12:36:34.553Z,30.74
2018-04-15T12:41:25.582Z,30.91
2018-04-15T12:46:16.627Z,30.46
2018-04-15T12:51:07.645Z,29.94
2018-04-15T12:55:58.721Z,29.55
2018-04-15T13:00:49.760Z,28.92
2018-04-15T13:05:40.819Z,29.03
2018-04-15T13:10:31.915Z,29.34
2018-04-15T13:15:22.911Z,28.28
2018-04-15T13:20:14.661Z,27.79
2018-04-15T13:25:05.704Z,27.60
2018-04-15T13:29:56.788Z,27.85
2018-04-15T13:34:48.595Z,28.05
2018-04-15T13:39:39.625Z,28.26
2018-04-15T13:44:30.675Z,28.61
2018-04-15T13:49:21.703Z,28.61
2018-04-15T13:54:13.549Z,28.80
2018-04-15T13:59:04.595Z,28.30
2018-04-15T14:03:55.608Z,28.34
2018-04-15T14:08:47.377Z,27.77
2018-04-15T14:13:38.439Z,27.86
2018-04-15T14:18:30.215Z,27.43
2018-04-15T14:23:22.031Z,27.34
2018-04-15T14:28:13.104Z,27.40
2018-04-15T14:33:04.117Z,27.47
2018-04-15T14:37:55.119Z,26.60
2018-04-15T14:42:46.907Z,26.66
2018-04-15T14:47:37.939Z,26.89
2018-04-15T14:52:29.276Z,27.08
2018-04-15T14:57:20.296Z,27.16
2018-04-15T15:02:11.311Z,26.89
2018-04-15T15:07:02.381Z,26.56
2018-04-15T15:11:54.265Z,26.38
2018-04-15T15:16:45.527Z,26.44
2018-04-15T15:21:37.324Z,26.55
2018-04-15T15:26:28.316Z,26.42
2018-04-15T15:31:20.052Z,26.34
2018-04-15T15:36:11.943Z,26.06
2018-04-15T15:41:02.944Z,26.02
2018-04-15T15:45:54.144Z,26.08
2018-04-15T15:50:45.917Z,25.93
2018-04-15T15:55:36.947Z,25.85
2018-04-15T16:00:27.951Z,25.82
2018-04-15T16:05:19.003Z,25.76
2018-04-15T16:10:10.064Z,25.59
2018-04-15T16:15:01.069Z,25.56
2018-04-15T16:19:52.111Z,25.55
2018-04-15T16:24:43.167Z,25.48
2018-04-15T16:29:34.276Z,25.49
2018-04-15T16:34:26.007Z,25.52
2018-04-15T16:39:17.952Z,25.48
2018-04-15T16:44:09.736Z,25.40
2018-04-15T16:49:00.748Z,25.28
2018-04-15T16:53:51.932Z,25.19
2018-04-15T16:58:42.942Z,25.06
2018-04-15T17:03:33.976Z,24.96
2018-04-15T17:08:25.758Z,24.81
2018-04-15T17:13:16.799Z,24.71
2018-04-15T17:18:07.892Z,24.55
2018-04-15T17:22:58.953Z,24.46
2018-04-15T17:27:49.955Z,24.33
2018-04-15T17:32:41.287Z,24.15
2018-04-15T17:37:32.487Z,24.02
2018-04-15T17:42:24.359Z,23.88
2018-04-15T17:47:15.385Z,23.79
2018-04-15T17:52:06.412Z,23.61
2018-04-15T17:56:57.549Z,23.49
2018-04-15T18:01:48.561Z,23.38
2018-04-15T18:06:39.731Z,23.24
2018-04-15T18:11:30.863Z,23.14
2018-04-15T18:16:22.628Z,22.99
2018-04-15T18:21:13.641Z,22.89
2018-04-15T18:26:04.721Z,22.74
2018-04-15T18:30:57.263Z,22.63
2018-04-15T18:35:48.275Z,22.54
2018-04-15T18:40:39.311Z,22.40
2018-04-15T18:45:30.431Z,22.28
2018-04-15T18:50:21.492Z,21.98
2018-04-15T18:55:13.961Z,21.82
2018-04-15T19:00:05.742Z,21.68
2018-04-15T19:04:56.794Z,21.56
2018-04-15T19:09:48.609Z,21.45
2018-04-15T19:14:39.649Z,21.39
2018-04-15T19:19:30.660Z,21.31
2018-04-15T19:24:21.701Z,21.26
2018-04-15T19:29:12.712Z,21.19
2018-04-15T19:34:03.719Z,21.10
2018-04-15T19:38:54.770Z,20.98
2018-04-15T19:43:45.800Z,20.86
2018-04-15T19:48:38.281Z,20.74
2018-04-15T19:53:30.801Z,20.68
2018-04-15T19:58:21.845Z,20.57
2018-04-15T20:03:12.927Z,20.43
2018-04-15T20:08:03.939Z,20.27
2018-04-15T20:12:55.041Z,20.18
2018-04-15T20:17:46.115Z,19.94
2018-04-15T20:22:37.249Z,19.83
2018-04-15T20:27:28.266Z,19.74
2018-04-15T20:32:19.273Z,19.65
2018-04-15T20:37:10.286Z,19.53
2018-04-15T20:42:01.411Z,19.43
2018-04-15T20:46:52.460Z,19.28
2018-04-15T20:51:43.467Z,19.20
2018-04-15T20:56:34.495Z,19.09
2018-04-15T21:01:25.530Z,18.91
2018-04-15T21:06:16.613Z,18.84
2018-04-15T21:11:07.665Z,18.69
2018-04-15T21:15:58.682Z,18.57
2018-04-15T21:20:49.703Z,18.48
2018-04-15T21:25:40.733Z,18.36
2018-04-15T21:30:31.761Z,18.29
2018-04-15T21:35:22.763Z,18.20
2018-04-15T21:40:13.840Z,18.03
2018-04-15T21:45:05.595Z,17.98
2018-04-15T21:49:57.424Z,17.86
2018-04-15T21:54:49.185Z,17.73
2018-04-15T21:59:40.251Z,17.64
2018-04-15T22:04:31.273Z,17.53
2018-04-15T22:09:22.355Z,17.49
2018-04-15T22:14:13.367Z,17.37
2018-04-15T22:19:04.410Z,17.21
2018-04-15T22:23:55.543Z,17.13
2018-04-15T22:28:46.567Z,17.13
2018-04-15T22:33:37.584Z,17.05
2018-04-15T22:38:28.605Z,16.99
2018-04-15T22:43:19.740Z,16.92
2018-04-15T22:48:10.743Z,16.87
2018-04-15T22:53:01.768Z,16.85
2018-04-15T22:57:52.792Z,16.83
2018-04-15T23:02:43.790Z,16.66
2018-04-15T23:07:35.557Z,16.52
2018-04-15T23:12:26.592Z,16.40
2018-04-15T23:17:17.583Z,16.40
2018-04-15T23:22:09.323Z,16.37
2018-04-15T23:27:01.060Z,16.30
2018-04-15T23:31:52.803Z,16.14
2018-04-15T23:36:44.576Z,16.02
2018-04-15T23:41:35.583Z,16.03
2018-04-15T23:46:26.605Z,15.99
2018-04-15T23:51:17.650Z,15.91
2018-04-15T23:56:08.654Z,15.81
